sensor_id;sensor_type;location;lat;lon;timestamp;pressure;altitude;pressure_sealevel;temperature;humidity
58018;BME280;43810;50.860;19.226;2023-02-12T00:00:07;99837.47;;;4.28;91.52
58018;BME280;43810;50.860;19.226;2023-02-12T00:02:54;99838.25;;;4.29;91.80
58018;BME280;43810;50.860;19.226;2023-02-12T00:05:20;99846.16;;;4.29;91.63
58018;BME280;43810;50.860;19.226;2023-02-12T00:07:45;99847.50;;;4.32;91.74
58018;BME280;43810;50.860;19.226;2023-02-12T00:10:12;99846.94;;;4.35;91.64
58018;BME280;43810;50.860;19.226;2023-02-12T00:12:38;99853.81;;;4.36;91.84
58018;BME280;43810;50.860;19.226;2023-02-12T00:15:04;99848.28;;;4.32;92.24
58018;BME280;43810;50.860;19.226;2023-02-12T00:17:30;99866.44;;;4.34;92.18
58018;BME280;43810;50.860;19.226;2023-02-12T00:19:56;99855.38;;;4.37;92.15
58018;BME280;43810;50.860;19.226;2023-02-12T00:22:21;99858.31;;;4.40;91.91
58018;BME280;43810;50.860;19.226;2023-02-12T00:24:47;99857.00;;;4.43;92.05
58018;BME280;43810;50.860;19.226;2023-02-12T00:27:13;99856.75;;;4.44;92.01
58018;BME280;43810;50.860;19.226;2023-02-12T00:29:39;99861.78;;;4.46;91.77
58018;BME280;43810;50.860;19.226;2023-02-12T00:32:05;99863.59;;;4.45;91.50
58018;BME280;43810;50.860;19.226;2023-02-12T00:34:31;99867.53;;;4.48;91.92
58018;BME280;43810;50.860;19.226;2023-02-12T00:36:57;99860.97;;;4.45;91.88
58018;BME280;43810;50.860;19.226;2023-02-12T00:39:23;99856.22;;;4.47;91.88
58018;BME280;43810;50.860;19.226;2023-02-12T00:41:49;99871.81;;;4.54;91.53
58018;BME280;43810;50.860;19.226;2023-02-12T00:44:15;99878.09;;;4.53;91.55
58018;BME280;43810;50.860;19.226;2023-02-12T00:46:40;99881.78;;;4.52;91.17
58018;BME280;43810;50.860;19.226;2023-02-12T00:49:06;99884.13;;;4.48;91.50
58018;BME280;43810;50.860;19.226;2023-02-12T00:51:32;99885.44;;;4.46;91.79
58018;BME280;43810;50.860;19.226;2023-02-12T00:53:58;99882.03;;;4.45;91.92
58018;BME280;43810;50.860;19.226;2023-02-12T00:56:23;99892.81;;;4.44;91.89
58018;BME280;43810;50.860;19.226;2023-02-12T00:58:49;99894.91;;;4.47;91.93
58018;BME280;43810;50.860;19.226;2023-02-12T01:01:16;99897.53;;;4.47;91.66
58018;BME280;43810;50.860;19.226;2023-02-12T01:03:42;99897.56;;;4.52;91.79
58018;BME280;43810;50.860;19.226;2023-02-12T01:06:07;99899.66;;;4.50;91.70
58018;BME280;43810;50.860;19.226;2023-02-12T01:08:33;99912.03;;;4.49;91.53
58018;BME280;43810;50.860;19.226;2023-02-12T01:11:02;99913.13;;;4.53;91.56
58018;BME280;43810;50.860;19.226;2023-02-12T01:13:30;99915.19;;;4.51;91.13
58018;BME280;43810;50.860;19.226;2023-02-12T01:16:03;99912.78;;;4.40;91.11
58018;BME280;43810;50.860;19.226;2023-02-12T01:18:31;99932.78;;;4.41;91.06
58018;BME280;43810;50.860;19.226;2023-02-12T01:20:56;99935.13;;;4.37;91.25
58018;BME280;43810;50.860;19.226;2023-02-12T01:23:23;99927.22;;;4.37;91.36
58018;BME280;43810;50.860;19.226;2023-02-12T01:25:49;99925.38;;;4.33;91.54
58018;BME280;43810;50.860;19.226;2023-02-12T01:28:15;99928.78;;;4.33;91.31
58018;BME280;43810;50.860;19.226;2023-02-12T01:30:41;99943.50;;;4.29;91.18
58018;BME280;43810;50.860;19.226;2023-02-12T01:33:07;99941.66;;;4.35;91.09
58018;BME280;43810;50.860;19.226;2023-02-12T01:35:32;99946.16;;;4.34;90.92
58018;BME280;43810;50.860;19.226;2023-02-12T01:37:58;99950.59;;;4.28;90.86
58018;BME280;43810;50.860;19.226;2023-02-12T01:40:24;99951.34;;;4.24;90.78
58018;BME280;43810;50.860;19.226;2023-02-12T01:42:50;99956.81;;;4.17;91.20
58018;BME280;43810;50.860;19.226;2023-02-12T01:47:43;99960.75;;;4.15;90.96
58018;BME280;43810;50.860;19.226;2023-02-12T01:50:16;99960.50;;;4.16;91.41
58018;BME280;43810;50.860;19.226;2023-02-12T01:52:47;99961.00;;;4.13;91.10
58018;BME280;43810;50.860;19.226;2023-02-12T01:55:15;99967.03;;;4.14;91.03
58018;BME280;43810;50.860;19.226;2023-02-12T01:57:42;99975.72;;;4.14;91.00
58018;BME280;43810;50.860;19.226;2023-02-12T02:00:14;99970.22;;;4.16;91.05
58018;BME280;43810;50.860;19.226;2023-02-12T02:02:43;99965.25;;;4.19;90.79
58018;BME280;43810;50.860;19.226;2023-02-12T02:05:11;99968.13;;;4.18;91.04
58018;BME280;43810;50.860;19.226;2023-02-12T02:07:42;99977.53;;;4.09;91.14
58018;BME280;43810;50.860;19.226;2023-02-12T02:10:09;99975.19;;;4.12;91.19
58018;BME280;43810;50.860;19.226;2023-02-12T02:12:36;99974.91;;;4.09;91.28
58018;BME280;43810;50.860;19.226;2023-02-12T02:15:21;99988.31;;;4.07;91.46
58018;BME280;43810;50.860;19.226;2023-02-12T02:34:08;100006.16;;;4.05;91.12
58018;BME280;43810;50.860;19.226;2023-02-12T02:44:53;100015.34;;;4.03;91.02
58018;BME280;43810;50.860;19.226;2023-02-12T02:47:29;100012.72;;;4.03;90.79
58018;BME280;43810;50.860;19.226;2023-02-12T02:50:03;100018.78;;;4.03;90.86
58018;BME280;43810;50.860;19.226;2023-02-12T02:52:40;100014.84;;;4.06;90.73
58018;BME280;43810;50.860;19.226;2023-02-12T02:55:10;100033.19;;;3.96;90.93
58018;BME280;43810;50.860;19.226;2023-02-12T02:57:52;100030.84;;;3.99;90.62
58018;BME280;43810;50.860;19.226;2023-02-12T03:00:25;100035.00;;;3.95;90.61
58018;BME280;43810;50.860;19.226;2023-02-12T03:02:55;100031.78;;;3.88;90.89
58018;BME280;43810;50.860;19.226;2023-02-12T03:05:29;100040.72;;;3.87;90.81
58018;BME280;43810;50.860;19.226;2023-02-12T03:08:04;100051.28;;;3.92;90.41
58018;BME280;43810;50.860;19.226;2023-02-12T03:10:39;100047.06;;;3.91;90.59
58018;BME280;43810;50.860;19.226;2023-02-12T03:13:19;100057.81;;;3.89;90.67
58018;BME280;43810;50.860;19.226;2023-02-12T03:15:56;100049.09;;;3.84;90.58
58018;BME280;43810;50.860;19.226;2023-02-12T03:18:27;100058.25;;;3.81;90.70
58018;BME280;43810;50.860;19.226;2023-02-12T03:20:59;100065.97;;;3.66;90.79
58018;BME280;43810;50.860;19.226;2023-02-12T03:23:30;100066.97;;;3.60;91.00
58018;BME280;43810;50.860;19.226;2023-02-12T03:26:03;100079.81;;;3.57;91.10
58018;BME280;43810;50.860;19.226;2023-02-12T03:28:32;100092.16;;;3.56;91.04
58018;BME280;43810;50.860;19.226;2023-02-12T03:37:10;100102.94;;;3.16;91.14
58018;BME280;43810;50.860;19.226;2023-02-12T03:39:48;100112.88;;;3.14;91.15
58018;BME280;43810;50.860;19.226;2023-02-12T03:42:44;100108.34;;;3.09;90.67
58018;BME280;43810;50.860;19.226;2023-02-12T03:53:04;100141.16;;;2.73;90.31
58018;BME280;43810;50.860;19.226;2023-02-12T03:55:31;100141.09;;;2.68;90.88
58018;BME280;43810;50.860;19.226;2023-02-12T03:58:00;100145.84;;;2.71;90.51
58018;BME280;43810;50.860;19.226;2023-02-12T04:00:27;100144.28;;;2.70;90.69
58018;BME280;43810;50.860;19.226;2023-02-12T04:02:53;100163.72;;;2.74;90.47
58018;BME280;43810;50.860;19.226;2023-02-12T04:05:25;100160.31;;;2.57;90.15
58018;BME280;43810;50.860;19.226;2023-02-12T04:07:53;100167.91;;;2.42;90.29
58018;BME280;43810;50.860;19.226;2023-02-12T04:10:41;100178.00;;;2.50;90.07
58018;BME280;43810;50.860;19.226;2023-02-12T04:16:50;100184.50;;;2.31;88.61
58018;BME280;43810;50.860;19.226;2023-02-12T04:18:45;100178.50;;;2.19;88.47
58018;BME280;43810;50.860;19.226;2023-02-12T04:26:56;100212.06;;;2.05;88.02
58018;BME280;43810;50.860;19.226;2023-02-12T04:29:32;100215.38;;;2.00;88.26
58018;BME280;43810;50.860;19.226;2023-02-12T04:32:04;100222.94;;;1.85;88.45
58018;BME280;43810;50.860;19.226;2023-02-12T04:39:43;100221.44;;;1.89;87.59
58018;BME280;43810;50.860;19.226;2023-02-12T04:42:09;100230.34;;;1.88;87.44
58018;BME280;43810;50.860;19.226;2023-02-12T04:44:41;100218.59;;;1.91;86.92
58018;BME280;43810;50.860;19.226;2023-02-12T04:47:08;100220.75;;;1.82;86.85
58018;BME280;43810;50.860;19.226;2023-02-12T04:49:35;100230.94;;;1.79;86.83
58018;BME280;43810;50.860;19.226;2023-02-12T04:52:00;100240.25;;;1.75;86.72
58018;BME280;43810;50.860;19.226;2023-02-12T04:54:26;100234.91;;;1.69;86.57
58018;BME280;43810;50.860;19.226;2023-02-12T04:56:52;100237.78;;;1.68;86.64
58018;BME280;43810;50.860;19.226;2023-02-12T04:59:18;100247.34;;;1.51;86.75
58018;BME280;43810;50.860;19.226;2023-02-12T05:01:44;100255.19;;;1.51;87.46
58018;BME280;43810;50.860;19.226;2023-02-12T05:04:13;100257.13;;;1.44;87.74
58018;BME280;43810;50.860;19.226;2023-02-12T05:06:40;100272.38;;;1.47;87.75
58018;BME280;43810;50.860;19.226;2023-02-12T05:09:07;100272.72;;;1.50;86.76
58018;BME280;43810;50.860;19.226;2023-02-12T05:11:32;100276.72;;;1.53;86.09
58018;BME280;43810;50.860;19.226;2023-02-12T05:13:59;100283.53;;;1.42;86.63
58018;BME280;43810;50.860;19.226;2023-02-12T05:16:25;100296.72;;;1.35;86.77
58018;BME280;43810;50.860;19.226;2023-02-12T05:18:51;100295.72;;;1.48;86.25
58018;BME280;43810;50.860;19.226;2023-02-12T05:21:16;100308.72;;;1.43;84.75
58018;BME280;43810;50.860;19.226;2023-02-12T05:23:42;100320.28;;;1.24;85.07
58018;BME280;43810;50.860;19.226;2023-02-12T05:26:17;100306.03;;;1.08;85.39
58018;BME280;43810;50.860;19.226;2023-02-12T05:28:44;100313.47;;;1.23;85.22
58018;BME280;43810;50.860;19.226;2023-02-12T05:31:13;100310.84;;;1.23;84.96
58018;BME280;43810;50.860;19.226;2023-02-12T05:33:43;100309.56;;;1.14;85.49
58018;BME280;43810;50.860;19.226;2023-02-12T05:36:12;100313.97;;;1.13;85.17
58018;BME280;43810;50.860;19.226;2023-02-12T05:38:38;100328.38;;;0.92;86.06
58018;BME280;43810;50.860;19.226;2023-02-12T05:41:10;100334.59;;;0.80;86.32
58018;BME280;43810;50.860;19.226;2023-02-12T05:43:37;100336.91;;;0.88;85.64
58018;BME280;43810;50.860;19.226;2023-02-12T05:46:04;100341.72;;;0.73;84.43
58018;BME280;43810;50.860;19.226;2023-02-12T05:48:31;100343.75;;;0.71;85.25
58018;BME280;43810;50.860;19.226;2023-02-12T05:51:02;100351.16;;;0.74;85.06
58018;BME280;43810;50.860;19.226;2023-02-12T05:53:28;100361.53;;;0.80;84.46
58018;BME280;43810;50.860;19.226;2023-02-12T05:55:54;100357.22;;;0.74;83.97
58018;BME280;43810;50.860;19.226;2023-02-12T05:58:30;100369.34;;;0.69;84.15
58018;BME280;43810;50.860;19.226;2023-02-12T06:00:55;100370.50;;;0.73;84.00
58018;BME280;43810;50.860;19.226;2023-02-12T06:03:21;100354.72;;;0.79;82.71
58018;BME280;43810;50.860;19.226;2023-02-12T06:05:50;100385.63;;;0.71;81.77
58018;BME280;43810;50.860;19.226;2023-02-12T06:08:16;100393.47;;;0.52;82.28
58018;BME280;43810;50.860;19.226;2023-02-12T06:10:42;100390.06;;;0.52;82.12
58018;BME280;43810;50.860;19.226;2023-02-12T06:13:08;100393.81;;;0.56;82.68
58018;BME280;43810;50.860;19.226;2023-02-12T06:15:36;100391.88;;;0.51;82.76
58018;BME280;43810;50.860;19.226;2023-02-12T06:18:03;100396.38;;;0.62;82.02
58018;BME280;43810;50.860;19.226;2023-02-12T06:20:29;100405.09;;;0.75;81.80
58018;BME280;43810;50.860;19.226;2023-02-12T06:22:55;100404.50;;;0.73;81.45
58018;BME280;43810;50.860;19.226;2023-02-12T06:25:20;100403.13;;;0.70;82.55
58018;BME280;43810;50.860;19.226;2023-02-12T06:27:46;100413.22;;;0.67;83.68
58018;BME280;43810;50.860;19.226;2023-02-12T06:30:12;100423.63;;;0.73;83.94
58018;BME280;43810;50.860;19.226;2023-02-12T06:32:38;100423.53;;;0.80;83.17
58018;BME280;43810;50.860;19.226;2023-02-12T06:35:04;100429.03;;;0.90;82.43
58018;BME280;43810;50.860;19.226;2023-02-12T06:37:30;100431.66;;;0.90;82.38
58018;BME280;43810;50.860;19.226;2023-02-12T06:39:57;100432.69;;;0.89;80.99
58018;BME280;43810;50.860;19.226;2023-02-12T06:42:23;100438.81;;;0.83;81.85
58018;BME280;43810;50.860;19.226;2023-02-12T06:44:48;100436.78;;;0.85;80.58
58018;BME280;43810;50.860;19.226;2023-02-12T06:47:14;100441.13;;;0.91;80.60
58018;BME280;43810;50.860;19.226;2023-02-12T06:49:40;100441.31;;;0.89;81.05
58018;BME280;43810;50.860;19.226;2023-02-12T06:52:06;100439.09;;;0.93;81.16
58018;BME280;43810;50.860;19.226;2023-02-12T06:54:32;100442.56;;;1.05;81.41
58018;BME280;43810;50.860;19.226;2023-02-12T06:56:58;100436.72;;;1.21;80.04
58018;BME280;43810;50.860;19.226;2023-02-12T06:59:23;100447.28;;;1.15;79.08
58018;BME280;43810;50.860;19.226;2023-02-12T07:01:49;100454.03;;;1.22;79.02
58018;BME280;43810;50.860;19.226;2023-02-12T07:04:15;100446.31;;;1.27;78.15
58018;BME280;43810;50.860;19.226;2023-02-12T07:06:41;100453.56;;;1.25;77.72
58018;BME280;43810;50.860;19.226;2023-02-12T07:09:06;100469.28;;;1.25;78.08
58018;BME280;43810;50.860;19.226;2023-02-12T07:11:34;100464.84;;;1.26;77.88
58018;BME280;43810;50.860;19.226;2023-02-12T07:14:00;100465.31;;;1.23;77.25
58018;BME280;43810;50.860;19.226;2023-02-12T07:16:27;100464.78;;;1.32;77.16
58018;BME280;43810;50.860;19.226;2023-02-12T07:18:53;100462.91;;;1.51;77.08
58018;BME280;43810;50.860;19.226;2023-02-12T07:21:20;100476.59;;;1.53;76.51
58018;BME280;43810;50.860;19.226;2023-02-12T07:23:50;100466.09;;;1.53;76.42
58018;BME280;43810;50.860;19.226;2023-02-12T07:26:16;100466.66;;;1.44;76.86
58018;BME280;43810;50.860;19.226;2023-02-12T07:28:42;100462.81;;;1.58;77.46
58018;BME280;43810;50.860;19.226;2023-02-12T07:31:14;100467.16;;;1.64;76.57
58018;BME280;43810;50.860;19.226;2023-02-12T07:33:40;100469.56;;;1.65;76.68
58018;BME280;43810;50.860;19.226;2023-02-12T07:36:09;100478.81;;;1.68;75.78
58018;BME280;43810;50.860;19.226;2023-02-12T07:38:36;100487.47;;;1.68;76.88
58018;BME280;43810;50.860;19.226;2023-02-12T07:41:27;100494.78;;;1.78;75.79
58018;BME280;43810;50.860;19.226;2023-02-12T07:43:56;100484.50;;;1.65;76.24
58018;BME280;43810;50.860;19.226;2023-02-12T07:46:35;100497.19;;;1.50;76.09
58018;BME280;43810;50.860;19.226;2023-02-12T07:49:03;100496.75;;;1.53;76.17
58018;BME280;43810;50.860;19.226;2023-02-12T07:51:31;100493.75;;;1.49;75.94
58018;BME280;43810;50.860;19.226;2023-02-12T07:53:58;100505.34;;;1.42;74.37
58018;BME280;43810;50.860;19.226;2023-02-12T07:56:28;100506.19;;;1.54;74.61
58018;BME280;43810;50.860;19.226;2023-02-12T07:58:58;100516.81;;;1.59;75.37
58018;BME280;43810;50.860;19.226;2023-02-12T08:01:25;100503.31;;;1.73;74.77
58018;BME280;43810;50.860;19.226;2023-02-12T08:03:52;100515.56;;;1.91;74.45
58018;BME280;43810;50.860;19.226;2023-02-12T08:06:24;100512.06;;;2.09;72.97
58018;BME280;43810;50.860;19.226;2023-02-12T08:08:55;100512.88;;;2.09;71.86
58018;BME280;43810;50.860;19.226;2023-02-12T08:11:22;100513.63;;;1.98;72.78
58018;BME280;43810;50.860;19.226;2023-02-12T08:13:48;100518.88;;;1.98;73.43
58018;BME280;43810;50.860;19.226;2023-02-12T08:16:17;100514.56;;;2.16;73.27
58018;BME280;43810;50.860;19.226;2023-02-12T08:18:45;100520.19;;;2.31;72.81
58018;BME280;43810;50.860;19.226;2023-02-12T08:21:14;100520.44;;;2.53;71.18
58018;BME280;43810;50.860;19.226;2023-02-12T08:23:41;100515.19;;;2.64;71.46
58018;BME280;43810;50.860;19.226;2023-02-12T08:26:12;100521.13;;;2.71;70.73
58018;BME280;43810;50.860;19.226;2023-02-12T08:28:42;100521.94;;;2.60;70.10
58018;BME280;43810;50.860;19.226;2023-02-12T08:31:11;100533.78;;;2.63;70.58
58018;BME280;43810;50.860;19.226;2023-02-12T08:33:38;100523.63;;;2.78;69.64
58018;BME280;43810;50.860;19.226;2023-02-12T08:36:07;100520.66;;;2.74;68.96
58018;BME280;43810;50.860;19.226;2023-02-12T08:38:34;100531.28;;;2.79;69.45
58018;BME280;43810;50.860;19.226;2023-02-12T08:41:06;100532.31;;;2.78;71.23
58018;BME280;43810;50.860;19.226;2023-02-12T08:43:32;100544.63;;;2.66;71.24
58018;BME280;43810;50.860;19.226;2023-02-12T08:46:13;100534.47;;;2.58;69.40
58018;BME280;43810;50.860;19.226;2023-02-12T08:48:41;100535.38;;;2.40;71.04
58018;BME280;43810;50.860;19.226;2023-02-12T08:51:16;100536.75;;;2.55;70.56
58018;BME280;43810;50.860;19.226;2023-02-12T08:53:45;100532.66;;;2.59;70.41
58018;BME280;43810;50.860;19.226;2023-02-12T08:56:13;100540.75;;;2.57;70.10
58018;BME280;43810;50.860;19.226;2023-02-12T08:58:40;100543.03;;;2.65;69.95
58018;BME280;43810;50.860;19.226;2023-02-12T09:01:21;100547.94;;;2.62;70.25
58018;BME280;43810;50.860;19.226;2023-02-12T09:03:48;100539.59;;;2.76;70.42
58018;BME280;43810;50.860;19.226;2023-02-12T09:06:17;100545.66;;;2.77;70.16
58018;BME280;43810;50.860;19.226;2023-02-12T09:08:43;100546.91;;;2.74;69.25
58018;BME280;43810;50.860;19.226;2023-02-12T09:11:15;100550.69;;;2.78;69.86
58018;BME280;43810;50.860;19.226;2023-02-12T09:13:42;100556.72;;;2.67;68.92
58018;BME280;43810;50.860;19.226;2023-02-12T09:16:08;100553.06;;;3.03;67.79
58018;BME280;43810;50.860;19.226;2023-02-12T09:18:35;100552.91;;;3.33;67.07
58018;BME280;43810;50.860;19.226;2023-02-12T09:21:12;100561.13;;;3.77;66.19
58018;BME280;43810;50.860;19.226;2023-02-12T09:23:39;100567.84;;;4.01;64.67
58018;BME280;43810;50.860;19.226;2023-02-12T09:26:07;100571.22;;;4.13;64.97
58018;BME280;43810;50.860;19.226;2023-02-12T09:28:35;100571.78;;;4.15;65.18
58018;BME280;43810;50.860;19.226;2023-02-12T09:31:13;100571.03;;;4.32;65.30
58018;BME280;43810;50.860;19.226;2023-02-12T09:33:40;100570.78;;;4.50;63.03
58018;BME280;43810;50.860;19.226;2023-02-12T09:36:14;100577.31;;;4.31;65.49
58018;BME280;43810;50.860;19.226;2023-02-12T09:38:40;100585.50;;;4.17;65.92
58018;BME280;43810;50.860;19.226;2023-02-12T09:41:14;100581.25;;;4.00;67.35
58018;BME280;43810;50.860;19.226;2023-02-12T09:51:52;100598.31;;;3.97;66.19
58018;BME280;43810;50.860;19.226;2023-02-12T09:54:27;100592.88;;;4.04;64.85
58018;BME280;43810;50.860;19.226;2023-02-12T09:56:56;100600.03;;;3.91;66.25
58018;BME280;43810;50.860;19.226;2023-02-12T09:59:39;100596.88;;;4.06;67.89
58018;BME280;43810;50.860;19.226;2023-02-12T10:02:12;100598.50;;;4.24;65.23
58018;BME280;43810;50.860;19.226;2023-02-12T10:04:39;100596.53;;;4.48;64.59
58018;BME280;43810;50.860;19.226;2023-02-12T10:17:47;100582.66;;;3.62;68.60
58018;BME280;43810;50.860;19.226;2023-02-12T10:23:22;100583.06;;;4.61;64.20
58018;BME280;43810;50.860;19.226;2023-02-12T10:25:55;100580.00;;;5.03;65.01
58018;BME280;43810;50.860;19.226;2023-02-12T10:28:25;100586.59;;;5.22;63.80
58018;BME280;43810;50.860;19.226;2023-02-12T10:33:26;100591.78;;;5.38;63.83
58018;BME280;43810;50.860;19.226;2023-02-12T10:36:02;100591.41;;;5.73;62.87
58018;BME280;43810;50.860;19.226;2023-02-12T10:38:38;100595.84;;;5.68;59.95
58018;BME280;43810;50.860;19.226;2023-02-12T10:41:09;100596.34;;;5.43;62.99
58018;BME280;43810;50.860;19.226;2023-02-12T10:43:37;100588.06;;;5.34;64.88
58018;BME280;43810;50.860;19.226;2023-02-12T10:46:03;100589.09;;;5.55;62.51
58018;BME280;43810;50.860;19.226;2023-02-12T10:48:34;100579.03;;;5.30;62.85
58018;BME280;43810;50.860;19.226;2023-02-12T10:53:44;100571.16;;;4.92;63.76
58018;BME280;43810;50.860;19.226;2023-02-12T10:58:49;100571.34;;;5.07;65.83
58018;BME280;43810;50.860;19.226;2023-02-12T11:01:19;100569.06;;;5.32;65.21
58018;BME280;43810;50.860;19.226;2023-02-12T11:03:47;100573.28;;;4.95;63.89
58018;BME280;43810;50.860;19.226;2023-02-12T11:06:19;100570.16;;;4.43;66.28
58018;BME280;43810;50.860;19.226;2023-02-12T11:08:45;100573.78;;;4.08;66.30
58018;BME280;43810;50.860;19.226;2023-02-12T11:11:23;100573.03;;;3.96;67.00
58018;BME280;43810;50.860;19.226;2023-02-12T11:16:35;100567.59;;;4.31;65.05
58018;BME280;43810;50.860;19.226;2023-02-12T11:19:04;100568.06;;;4.28;65.24
58018;BME280;43810;50.860;19.226;2023-02-12T11:21:31;100570.22;;;4.48;64.58
58018;BME280;43810;50.860;19.226;2023-02-12T11:24:32;100572.53;;;4.78;64.49
58018;BME280;43810;50.860;19.226;2023-02-12T11:27:24;100575.88;;;4.73;64.82
58018;BME280;43810;50.860;19.226;2023-02-12T11:30:12;100575.28;;;5.05;63.87
58018;BME280;43810;50.860;19.226;2023-02-12T11:32:38;100583.13;;;4.99;65.16
58018;BME280;43810;50.860;19.226;2023-02-12T11:37:53;100579.50;;;5.06;63.68
58018;BME280;43810;50.860;19.226;2023-02-12T11:40:32;100581.09;;;5.07;64.47
58018;BME280;43810;50.860;19.226;2023-02-12T11:43:02;100581.66;;;5.09;63.94
58018;BME280;43810;50.860;19.226;2023-02-12T11:45:35;100575.00;;;5.23;63.94
58018;BME280;43810;50.860;19.226;2023-02-12T11:48:33;100559.31;;;5.11;64.69
58018;BME280;43810;50.860;19.226;2023-02-12T11:51:06;100576.22;;;5.15;65.14
58018;BME280;43810;50.860;19.226;2023-02-12T11:53:36;100562.06;;;4.83;65.74
58018;BME280;43810;50.860;19.226;2023-02-12T11:56:08;100562.53;;;4.96;65.39
58018;BME280;43810;50.860;19.226;2023-02-12T11:58:34;100574.66;;;4.97;64.56
58018;BME280;43810;50.860;19.226;2023-02-12T12:06:28;100579.03;;;5.09;64.03
58018;BME280;43810;50.860;19.226;2023-02-12T12:14:19;100574.88;;;5.13;62.49
58018;BME280;43810;50.860;19.226;2023-02-12T12:17:10;100574.28;;;4.72;64.88
58018;BME280;43810;50.860;19.226;2023-02-12T12:20:09;100584.25;;;4.53;64.06
58018;BME280;43810;50.860;19.226;2023-02-12T12:28:00;100569.84;;;4.56;64.65
58018;BME280;43810;50.860;19.226;2023-02-12T12:33:16;100574.44;;;4.49;63.52
58018;BME280;43810;50.860;19.226;2023-02-12T12:36:02;100569.00;;;4.72;64.87
58018;BME280;43810;50.860;19.226;2023-02-12T12:47:15;100569.31;;;4.92;63.15
58018;BME280;43810;50.860;19.226;2023-02-12T13:09:33;100559.53;;;5.10;63.46
58018;BME280;43810;50.860;19.226;2023-02-12T13:12:18;100555.69;;;4.79;65.52
58018;BME280;43810;50.860;19.226;2023-02-12T13:34:36;100573.00;;;4.58;68.87
58018;BME280;43810;50.860;19.226;2023-02-12T13:37:05;100573.91;;;4.63;68.79
58018;BME280;43810;50.860;19.226;2023-02-12T13:39:38;100558.09;;;4.63;67.89
58018;BME280;43810;50.860;19.226;2023-02-12T13:42:39;100566.53;;;4.49;68.54
58018;BME280;43810;50.860;19.226;2023-02-12T13:50:49;100569.50;;;4.52;68.83
58018;BME280;43810;50.860;19.226;2023-02-12T13:54:03;100574.06;;;4.57;69.11
58018;BME280;43810;50.860;19.226;2023-02-12T13:58:55;100575.94;;;4.95;68.57
58018;BME280;43810;50.860;19.226;2023-02-12T14:01:37;100581.84;;;4.85;69.08
58018;BME280;43810;50.860;19.226;2023-02-12T14:04:32;100581.38;;;4.72;69.98
58018;BME280;43810;50.860;19.226;2023-02-12T14:07:10;100581.06;;;4.51;69.97
58018;BME280;43810;50.860;19.226;2023-02-12T14:09:39;100584.47;;;4.18;70.13
58018;BME280;43810;50.860;19.226;2023-02-12T14:12:36;100587.28;;;4.00;70.43
58018;BME280;43810;50.860;19.226;2023-02-12T14:15:08;100576.69;;;3.95;71.21
58018;BME280;43810;50.860;19.226;2023-02-12T14:20:30;100587.34;;;4.17;70.62
58018;BME280;43810;50.860;19.226;2023-02-12T14:25:45;100591.34;;;4.19;71.19
58018;BME280;43810;50.860;19.226;2023-02-12T14:31:30;100598.56;;;4.12;71.72
58018;BME280;43810;50.860;19.226;2023-02-12T14:44:42;100590.13;;;3.82;72.71
58018;BME280;43810;50.860;19.226;2023-02-12T14:49:53;100593.66;;;3.87;72.47
58018;BME280;43810;50.860;19.226;2023-02-12T14:52:30;100593.09;;;3.85;72.46
58018;BME280;43810;50.860;19.226;2023-02-12T14:55:00;100597.94;;;3.77;72.40
58018;BME280;43810;50.860;19.226;2023-02-12T15:05:41;100586.72;;;3.70;73.24
58018;BME280;43810;50.860;19.226;2023-02-12T15:13:30;100581.38;;;3.65;73.46
58018;BME280;43810;50.860;19.226;2023-02-12T15:16:11;100589.53;;;3.51;73.46
58018;BME280;43810;50.860;19.226;2023-02-12T15:21:30;100580.75;;;3.46;73.83
58018;BME280;43810;50.860;19.226;2023-02-12T15:24:21;100588.75;;;3.39;73.97
58018;BME280;43810;50.860;19.226;2023-02-12T15:26:50;100587.03;;;3.33;74.22
58018;BME280;43810;50.860;19.226;2023-02-12T15:32:00;100595.66;;;3.05;74.75
58018;BME280;43810;50.860;19.226;2023-02-12T15:34:30;100585.97;;;2.83;75.30
58018;BME280;43810;50.860;19.226;2023-02-12T15:36:58;100594.84;;;2.58;76.30
58018;BME280;43810;50.860;19.226;2023-02-12T15:39:25;100584.97;;;2.42;76.83
58018;BME280;43810;50.860;19.226;2023-02-12T15:41:52;100581.44;;;2.25;77.17
58018;BME280;43810;50.860;19.226;2023-02-12T15:44:24;100589.34;;;2.06;78.02
58018;BME280;43810;50.860;19.226;2023-02-12T15:47:12;100582.19;;;1.84;78.96
58018;BME280;43810;50.860;19.226;2023-02-12T15:49:40;100591.22;;;1.69;79.43
58018;BME280;43810;50.860;19.226;2023-02-12T15:52:07;100595.84;;;1.56;79.85
58018;BME280;43810;50.860;19.226;2023-02-12T15:54:35;100597.59;;;1.44;80.31
58018;BME280;43810;50.860;19.226;2023-02-12T15:57:08;100600.34;;;1.30;80.57
58018;BME280;43810;50.860;19.226;2023-02-12T15:59:34;100598.75;;;1.11;80.94
58018;BME280;43810;50.860;19.226;2023-02-12T16:02:02;100597.00;;;1.05;81.02
58018;BME280;43810;50.860;19.226;2023-02-12T16:04:32;100600.31;;;0.94;81.21
58018;BME280;43810;50.860;19.226;2023-02-12T16:06:59;100602.41;;;0.85;81.96
58018;BME280;43810;50.860;19.226;2023-02-12T16:09:33;100602.63;;;0.84;82.18
58018;BME280;43810;50.860;19.226;2023-02-12T16:12:02;100605.63;;;0.87;82.34
58018;BME280;43810;50.860;19.226;2023-02-12T16:20:00;100610.25;;;1.28;82.16
58018;BME280;43810;50.860;19.226;2023-02-12T16:24:54;100620.06;;;1.51;81.93
58018;BME280;43810;50.860;19.226;2023-02-12T16:27:26;100626.25;;;1.75;81.33
58018;BME280;43810;50.860;19.226;2023-02-12T16:29:56;100615.13;;;1.80;81.26
58018;BME280;43810;50.860;19.226;2023-02-12T16:42:34;100607.41;;;2.15;81.48
58018;BME280;43810;50.860;19.226;2023-02-12T16:45:00;100611.06;;;2.25;81.35
58018;BME280;43810;50.860;19.226;2023-02-12T16:47:26;100603.72;;;2.45;80.85
58018;BME280;43810;50.860;19.226;2023-02-12T16:49:59;100604.16;;;2.54;80.85
58018;BME280;43810;50.860;19.226;2023-02-12T16:54:51;100606.59;;;2.79;80.38